Time;durP1;ratioP1;P1;durP2;ratioP2;P2;SDS_P1;SDS_P2;PMS_P1;PMS_P2;Temp;Humidity;BMP_temperature;BMP_pressure;BME280_temperature;BME280_humidity;BME280_pressure;Samples;Min_cycle;Max_cycle;Signal;HPM_P1;HPM_P2
2022/10/24 00:01:46;;;;;;;9.38;6.03;;;15.50;99.90;;;;;;4985447;28;20052;-62
2022/10/24 00:04:36;;;;;;;7.03;5.75;;;15.40;99.90;;;;;;5012666;28;20036;-62
2022/10/24 00:07:22;;;;;;;7.18;6.35;;;15.40;99.90;;;;;;5008619;28;20509;-63
2022/10/24 00:10:10;;;;;;;13.10;9.30;;;15.40;99.90;;;;;;4997714;28;20041;-62
2022/10/24 00:12:56;;;;;;;12.02;8.15;;;15.40;99.90;;;;;;5014857;28;20042;-63
2022/10/24 00:15:50;;;;;;;10.57;6.50;;;15.40;99.90;;;;;;5019707;28;20045;-64
2022/10/24 00:18:36;;;;;;;5.57;4.88;;;15.30;99.90;;;;;;5016047;28;20077;-64
2022/10/24 00:21:22;;;;;;;6.13;5.40;;;15.40;99.90;;;;;;5015528;28;20030;-63
2022/10/24 00:24:11;;;;;;;10.35;5.50;;;15.30;99.90;;;;;;4996773;28;20034;-63
2022/10/24 00:26:57;;;;;;;7.63;5.45;;;15.40;99.90;;;;;;4995524;28;20041;-63
2022/10/24 00:29:43;;;;;;;7.07;5.55;;;15.30;99.90;;;;;;5011784;28;20034;-63
2022/10/24 00:32:30;;;;;;;7.07;5.75;;;15.30;99.90;;;;;;5009285;28;20029;-63
2022/10/24 00:35:16;;;;;;;8.77;6.10;;;15.20;99.90;;;;;;4983343;28;20029;-64
2022/10/24 00:38:02;;;;;;;7.75;5.82;;;15.20;99.90;;;;;;4998199;28;20494;-62
2022/10/24 00:40:48;;;;;;;7.95;6.05;;;15.10;99.90;;;;;;4998754;28;20049;-63
2022/10/24 00:43:34;;;;;;;6.63;5.47;;;15.10;99.90;;;;;;5012219;28;20514;-63
2022/10/24 00:46:20;;;;;;;8.57;5.05;;;15.00;99.90;;;;;;5012570;28;20164;-63
2022/10/24 00:49:13;;;;;;;9.48;5.80;;;15.00;99.90;;;;;;4984623;28;20061;-63
2022/10/24 00:52:04;;;;;;;7.65;5.55;;;15.00;99.90;;;;;;5012329;28;20088;-63
2022/10/24 00:54:52;;;;;;;7.07;5.15;;;15.00;99.90;;;;;;4999040;28;20092;-64
2022/10/24 00:57:50;;;;;;;8.60;5.32;;;15.00;99.90;;;;;;4997805;28;20033;-63
2022/10/24 01:00:36;;;;;;;6.97;5.43;;;15.00;99.90;;;;;;5011893;28;20398;-62
2022/10/24 01:03:22;;;;;;;7.20;4.97;;;15.00;99.90;;;;;;4997259;28;20026;-62
2022/10/24 01:06:33;;;;;;;5.80;4.90;;;15.00;99.90;;;;;;5011834;28;20422;-64
2022/10/24 01:09:30;;;;;;;5.45;4.85;;;15.10;99.90;;;;;;4999820;28;20041;-63
2022/10/24 01:12:37;;;;;;;7.57;5.18;;;15.10;99.90;;;;;;4997327;28;20113;-64
2022/10/24 01:15:46;;;;;;;6.47;5.75;;;15.10;99.90;;;;;;5012112;28;20438;-64
2022/10/24 01:18:41;;;;;;;7.53;5.85;;;15.10;99.90;;;;;;4999293;28;20030;-62
2022/10/24 01:21:32;;;;;;;7.70;6.10;;;15.10;99.90;;;;;;5011222;28;20823;-63
2022/10/24 01:24:42;;;;;;;8.57;6.30;;;15.00;99.90;;;;;;4991984;28;20022;-63
2022/10/24 01:27:51;;;;;;;11.13;6.95;;;15.10;99.90;;;;;;5007074;28;20034;-63
2022/10/24 01:30:44;;;;;;;7.85;6.97;;;15.00;99.90;;;;;;5011574;28;20053;-63
2022/10/24 01:33:47;;;;;;;7.82;6.78;;;14.90;99.90;;;;;;5009980;28;20041;-63
2022/10/24 01:36:55;;;;;;;9.15;7.00;;;15.00;99.90;;;;;;5006173;28;20403;-63
2022/10/24 01:39:48;;;;;;;7.65;6.38;;;15.00;99.90;;;;;;5011808;28;20109;-63
2022/10/24 01:42:37;;;;;;;9.30;6.65;;;15.00;99.90;;;;;;4996168;28;20029;-64
2022/10/24 01:45:35;;;;;;;7.95;6.43;;;15.00;99.90;;;;;;4997491;28;20706;-63
2022/10/24 01:48:24;;;;;;;12.88;7.30;;;15.00;99.90;;;;;;4995926;28;20033;-64
2022/10/24 01:51:13;;;;;;;9.75;6.63;;;15.00;99.90;;;;;;5010673;28;20517;-62
2022/10/24 01:54:00;;;;;;;9.27;7.32;;;14.90;99.90;;;;;;5010863;28;20036;-62
2022/10/24 01:56:46;;;;;;;13.32;8.32;;;15.00;99.90;;;;;;5010776;28;20045;-62
2022/10/24 01:59:32;;;;;;;15.88;9.15;;;15.00;99.90;;;;;;5010957;28;20100;-62
2022/10/24 02:02:28;;;;;;;11.18;8.25;;;14.90;99.90;;;;;;5010593;28;20026;-61
2022/10/24 02:05:25;;;;;;;12.77;9.25;;;14.90;99.90;;;;;;5010552;28;20029;-62
2022/10/24 02:08:17;;;;;;;11.32;8.60;;;14.90;99.90;;;;;;4985159;28;20041;-62
2022/10/24 02:11:06;;;;;;;9.77;8.18;;;15.00;99.90;;;;;;5010804;28;20038;-62
2022/10/24 02:14:01;;;;;;;12.43;8.98;;;14.90;99.90;;;;;;5012406;28;20041;-61
2022/10/24 02:16:47;;;;;;;;;;;14.90;99.90;;;;;;5011918;28;20486;-61
2022/10/24 02:19:35;;;;;;;10.68;8.52;;;14.80;99.90;;;;;;4997023;28;19917;-62
2022/10/24 02:22:53;;;;;;;14.70;8.68;;;14.70;99.90;;;;;;5010775;28;20057;-62
2022/10/24 02:25:44;;;;;;;11.35;9.18;;;14.70;99.90;;;;;;4997154;28;20121;-61
2022/10/24 02:28:36;;;;;;;12.98;9.63;;;14.60;99.90;;;;;;4995072;28;20026;-61
2022/10/24 02:31:25;;;;;;;9.75;8.68;;;14.60;99.90;;;;;;4996566;28;20030;-61
2022/10/24 02:34:12;;;;;;;15.48;8.48;;;14.60;99.90;;;;;;4987025;28;20435;-62
2022/10/24 02:37:02;;;;;;;10.68;7.70;;;14.50;99.90;;;;;;5012208;28;20034;-60
2022/10/24 02:39:50;;;;;;;13.68;8.02;;;14.40;99.90;;;;;;5011205;28;20053;-62
2022/10/24 02:42:38;;;;;;;9.38;7.22;;;14.30;99.90;;;;;;4970233;28;20113;-62
2022/10/24 02:45:25;;;;;;;11.15;7.05;;;14.30;99.90;;;;;;4984425;28;20034;-61
2022/10/24 02:48:15;;;;;;;8.13;7.15;;;14.40;99.90;;;;;;4995451;28;20445;-61
2022/10/24 02:51:02;;;;;;;12.00;7.00;;;14.40;99.90;;;;;;5011317;28;20057;-62
2022/10/24 02:53:49;;;;;;;8.80;6.53;;;14.50;99.90;;;;;;4998966;28;20093;-62
2022/10/24 02:56:40;;;;;;;12.73;6.78;;;14.50;99.90;;;;;;5018588;28;20490;-62
2022/10/24 02:59:26;;;;;;;7.65;6.15;;;14.50;99.90;;;;;;4989992;28;20026;-61
2022/10/24 03:02:12;;;;;;;8.32;6.00;;;14.60;99.90;;;;;;4974511;28;20022;-61
2022/10/24 03:04:58;;;;;;;7.63;5.68;;;14.60;99.90;;;;;;5000355;28;20030;-62
2022/10/24 03:07:44;;;;;;;9.20;6.20;;;14.60;99.90;;;;;;5014699;28;20036;-62
2022/10/24 03:10:30;;;;;;;13.45;7.40;;;14.60;99.90;;;;;;4980274;28;20039;-62
2022/10/24 03:13:16;;;;;;;13.50;6.53;;;14.70;99.90;;;;;;4996761;28;20110;-62
2022/10/24 03:16:03;;;;;;;12.38;6.10;;;14.70;99.90;;;;;;5001341;28;20108;-63
2022/10/24 03:18:49;;;;;;;8.02;5.70;;;14.60;99.90;;;;;;4980715;28;20030;-62
2022/10/24 03:21:35;;;;;;;8.90;5.65;;;14.60;99.90;;;;;;4998294;28;20081;-62
2022/10/24 03:24:21;;;;;;;10.82;5.78;;;14.70;99.90;;;;;;5013824;28;20081;-61
2022/10/24 03:27:07;;;;;;;7.60;5.50;;;14.60;99.90;;;;;;4998045;28;20089;-62
2022/10/24 03:29:53;;;;;;;9.15;5.78;;;14.70;99.90;;;;;;4997448;28;20442;-61
2022/10/24 03:32:39;;;;;;;8.93;5.93;;;14.60;99.90;;;;;;5016477;28;20026;-62
2022/10/24 03:35:25;;;;;;;10.35;7.50;;;14.70;99.90;;;;;;5016447;28;20026;-62
2022/10/24 03:38:11;;;;;;;8.55;6.70;;;14.70;99.90;;;;;;5001957;28;20034;-62
2022/10/24 03:40:57;;;;;;;10.55;6.38;;;14.70;99.90;;;;;;4999424;28;20064;-61
2022/10/24 03:43:43;;;;;;;10.77;6.20;;;14.70;99.90;;;;;;4993707;28;20082;-62
2022/10/24 03:46:29;;;;;;;9.30;5.85;;;14.80;99.90;;;;;;4981485;28;20023;-63
2022/10/24 03:49:15;;;;;;;8.52;5.28;;;14.80;99.90;;;;;;5013587;28;20432;-62
2022/10/24 03:52:01;;;;;;;12.13;5.78;;;14.80;99.90;;;;;;4998516;28;20410;-61
2022/10/24 03:54:47;;;;;;;11.68;5.57;;;14.70;99.90;;;;;;5013280;28;20081;-62
2022/10/24 03:57:33;;;;;;;8.30;5.38;;;14.70;99.90;;;;;;5013397;28;20117;-63
2022/10/24 04:00:19;;;;;;;9.35;6.40;;;14.70;99.90;;;;;;4998645;28;20117;-63
2022/10/24 04:03:06;;;;;;;10.43;5.90;;;14.70;99.90;;;;;;4999651;28;20468;-62
2022/10/24 04:05:52;;;;;;;13.57;9.00;;;14.70;99.90;;;;;;4999126;28;20540;-62
2022/10/24 04:08:38;;;;;;;12.85;6.95;;;14.70;99.90;;;;;;5012914;28;20037;-62
2022/10/24 04:11:24;;;;;;;11.02;5.90;;;14.70;99.90;;;;;;4999129;28;20105;-61
2022/10/24 04:14:10;;;;;;;12.95;6.45;;;14.80;99.90;;;;;;5012328;28;20038;-61
2022/10/24 04:16:56;;;;;;;9.30;5.47;;;14.80;99.90;;;;;;5008139;28;20144;-61
2022/10/24 04:19:42;;;;;;;8.98;5.20;;;14.70;99.90;;;;;;4953810;28;20530;-62
2022/10/24 04:22:28;;;;;;;11.52;6.18;;;14.80;99.90;;;;;;5011207;28;20502;-61
2022/10/24 04:25:15;;;;;;;10.93;5.82;;;14.80;99.90;;;;;;4999191;28;20030;-61
2022/10/24 04:28:02;;;;;;;15.70;10.95;;;14.90;99.90;;;;;;5011600;28;20083;-62
2022/10/24 04:30:53;;;;;;;12.25;8.38;;;14.90;99.90;;;;;;5012972;28;20026;-62
2022/10/24 04:33:39;;;;;;;10.30;6.20;;;14.90;99.90;;;;;;4998316;28;20517;-61
2022/10/24 04:36:25;;;;;;;12.65;5.78;;;14.90;99.90;;;;;;4998239;28;20030;-62
2022/10/24 04:39:11;;;;;;;15.30;6.78;;;14.90;99.90;;;;;;4998882;28;20617;-63
2022/10/24 04:41:58;;;;;;;10.77;6.32;;;14.90;99.90;;;;;;5012482;28;20030;-61
2022/10/24 04:44:44;;;;;;;8.30;5.68;;;14.90;99.90;;;;;;5013368;28;20072;-63
2022/10/24 04:47:30;;;;;;;12.52;6.10;;;15.00;99.90;;;;;;5012691;28;20218;-63
2022/10/24 04:50:16;;;;;;;11.13;6.15;;;15.00;99.90;;;;;;4998678;28;20581;-62
2022/10/24 04:53:02;;;;;;;11.02;6.13;;;15.00;99.90;;;;;;4984113;28;20430;-62
2022/10/24 04:55:48;;;;;;;14.52;7.10;;;15.00;99.90;;;;;;5007287;28;20033;-63
2022/10/24 04:58:34;;;;;;;15.48;6.78;;;14.90;99.90;;;;;;5011646;28;20502;-63
2022/10/24 05:01:20;;;;;;;11.75;6.60;;;15.00;99.90;;;;;;4996737;28;20022;-61
2022/10/24 05:04:07;;;;;;;8.60;5.38;;;15.00;99.90;;;;;;4970925;28;20077;-62
2022/10/24 05:06:52;;;;;;;12.15;6.15;;;15.10;99.90;;;;;;4996633;28;20034;-63
2022/10/24 05:09:38;;;;;;;10.43;5.32;;;15.10;99.90;;;;;;4997701;28;20034;-62
2022/10/24 05:12:24;;;;;;;11.02;5.43;;;15.20;99.90;;;;;;4996491;28;20528;-63
2022/10/24 05:15:10;;;;;;;19.58;8.50;;;15.20;99.90;;;;;;4997634;28;20037;-62
2022/10/24 05:17:58;;;;;;;20.00;10.95;;;15.20;99.90;;;;;;4996200;28;20045;-63
2022/10/24 05:20:43;;;;;;;13.50;6.13;;;15.30;99.90;;;;;;4998407;28;20105;-63
2022/10/24 05:23:29;;;;;;;10.93;5.95;;;15.40;99.90;;;;;;4981753;28;20053;-62
2022/10/24 05:26:15;;;;;;;13.65;6.05;;;15.40;99.90;;;;;;4996398;28;20412;-62
2022/10/24 05:29:01;;;;;;;11.10;5.90;;;15.40;99.90;;;;;;4997315;28;20029;-63
2022/10/24 05:31:47;;;;;;;15.40;6.97;;;15.40;99.90;;;;;;4983748;28;20033;-63
2022/10/24 05:34:33;;;;;;;12.73;8.02;;;15.30;99.90;;;;;;5010731;28;20038;-64
2022/10/24 05:37:19;;;;;;;14.32;8.82;;;15.30;99.90;;;;;;4984474;28;20042;-65
2022/10/24 05:40:07;;;;;;;16.50;10.13;;;15.30;99.90;;;;;;5010893;28;20034;-62
2022/10/24 05:42:53;;;;;;;18.85;11.13;;;15.40;99.90;;;;;;4997263;28;20383;-63
2022/10/24 05:45:39;;;;;;;19.45;11.48;;;15.30;99.90;;;;;;5011469;28;20029;-62
2022/10/24 05:48:25;;;;;;;22.60;12.13;;;15.30;99.90;;;;;;4980973;28;20053;-62
2022/10/24 05:51:11;;;;;;;20.85;12.75;;;15.30;99.90;;;;;;4996745;28;20040;-63
2022/10/24 05:53:57;;;;;;;31.50;15.30;;;15.30;99.90;;;;;;5011187;28;20061;-62
2022/10/24 05:56:43;;;;;;;27.55;16.15;;;15.30;99.90;;;;;;4998869;28;20395;-62
2022/10/24 05:59:29;;;;;;;25.92;15.88;;;15.20;99.90;;;;;;4995735;28;20026;-63
2022/10/24 06:02:18;;;;;;;22.85;13.10;;;15.30;99.90;;;;;;4981367;28;20038;-61
2022/10/24 06:05:04;;;;;;;21.35;10.35;;;15.30;99.90;;;;;;4984182;28;20109;-63
2022/10/24 06:07:50;;;;;;;21.25;10.43;;;15.40;99.90;;;;;;5008401;28;20022;-62
2022/10/24 06:10:36;;;;;;;14.68;8.13;;;15.40;99.90;;;;;;4993264;28;20466;-63
2022/10/24 06:13:22;;;;;;;18.02;10.00;;;15.40;99.90;;;;;;5007994;28;20045;-62
2022/10/24 06:16:09;;;;;;;12.75;7.03;;;15.50;99.90;;;;;;4995710;28;20065;-62
2022/10/24 06:18:56;;;;;;;15.40;6.18;;;15.50;99.90;;;;;;5010400;28;20026;-62
2022/10/24 06:21:42;;;;;;;16.83;5.85;;;15.50;99.90;;;;;;5004802;28;20018;-62
2022/10/24 06:24:28;;;;;;;22.88;6.15;;;15.50;99.90;;;;;;4982216;28;20502;-63
2022/10/24 06:27:14;;;;;;;10.95;5.40;;;15.60;99.90;;;;;;5008840;28;20413;-61
2022/10/24 06:30:00;;;;;;;13.57;5.75;;;15.60;99.90;;;;;;5007061;28;20177;-63
2022/10/24 06:32:46;;;;;;;9.15;5.32;;;15.70;99.90;;;;;;5011320;28;20029;-63
2022/10/24 06:35:32;;;;;;;11.13;5.60;;;15.70;99.90;;;;;;4969040;28;20088;-62
2022/10/24 06:38:18;;;;;;;13.43;5.45;;;15.90;99.90;;;;;;4998201;28;20104;-63
2022/10/24 06:41:09;;;;;;;8.20;5.40;;;15.80;99.90;;;;;;4999403;28;20068;-63
2022/10/24 06:43:55;;;;;;;10.98;5.13;;;15.90;99.90;;;;;;5022536;28;20037;-63
2022/10/24 06:46:41;;;;;;;13.23;5.65;;;15.90;99.90;;;;;;5021379;28;20026;-63
2022/10/24 06:49:27;;;;;;;11.35;5.70;;;15.90;99.90;;;;;;4999626;28;20129;-61
2022/10/24 06:52:13;;;;;;;14.50;7.00;;;15.90;99.90;;;;;;5008069;28;20048;-63
2022/10/24 06:54:59;;;;;;;9.98;6.10;;;15.90;99.90;;;;;;5008410;28;20030;-64
2022/10/24 06:57:45;;;;;;;12.95;5.43;;;15.90;99.90;;;;;;5005807;28;20046;-65
2022/10/24 07:00:32;;;;;;;11.00;5.93;;;16.00;99.90;;;;;;5005893;28;20032;-64
2022/10/24 07:03:18;;;;;;;10.93;5.22;;;16.00;99.90;;;;;;5009521;28;20037;-64
2022/10/24 07:06:06;;;;;;;11.10;5.22;;;16.00;99.90;;;;;;4980720;28;20030;-63
2022/10/24 07:08:54;;;;;;;11.57;5.32;;;16.00;99.90;;;;;;5007892;28;20036;-65
2022/10/24 07:11:40;;;;;;;11.32;5.28;;;16.00;99.90;;;;;;4995259;28;20502;-64
2022/10/24 07:14:27;;;;;;;9.38;5.38;;;16.10;99.90;;;;;;5006684;28;20034;-64
2022/10/24 07:17:14;;;;;;;16.17;9.00;;;16.10;99.90;;;;;;5002983;28;20461;-65
2022/10/24 07:20:00;;;;;;;14.52;5.15;;;16.10;99.90;;;;;;5006699;28;20113;-63
2022/10/24 07:22:46;;;;;;;14.52;5.00;;;16.20;99.90;;;;;;4994171;28;20042;-63
2022/10/24 07:25:32;;;;;;;10.63;4.95;;;16.20;99.90;;;;;;4996235;28;20029;-63
2022/10/24 07:28:17;;;;;;;11.73;4.85;;;16.30;99.90;;;;;;4994972;28;20093;-63
2022/10/24 07:31:04;;;;;;;11.45;5.50;;;16.40;99.90;;;;;;4996179;28;20797;-64
2022/10/24 07:33:51;;;;;;;11.93;4.70;;;16.40;99.90;;;;;;4996377;28;20033;-64
2022/10/24 07:36:37;;;;;;;11.73;5.25;;;16.40;99.90;;;;;;5009421;28;20026;-63
2022/10/24 07:39:23;;;;;;;19.20;6.78;;;16.50;99.90;;;;;;5006703;28;20061;-63
2022/10/24 07:42:13;;;;;;;10.25;4.40;;;16.50;99.90;;;;;;5013004;28;20140;-64
2022/10/24 07:45:01;;;;;;;10.52;5.80;;;16.60;99.90;;;;;;5012808;28;20029;-62
2022/10/24 07:47:47;;;;;;;12.93;5.40;;;16.60;99.90;;;;;;5013880;28;20058;-64
2022/10/24 07:50:39;;;;;;;11.52;5.03;;;16.60;99.90;;;;;;5012723;28;20038;-62
2022/10/24 07:53:26;;;;;;;11.48;4.47;;;16.60;99.90;;;;;;5013853;28;20028;-64
2022/10/24 07:56:14;;;;;;;11.55;4.68;;;16.60;99.90;;;;;;4996092;28;20034;-64
2022/10/24 07:59:00;;;;;;;15.57;4.82;;;16.70;99.90;;;;;;4998436;28;20498;-64
2022/10/24 08:01:46;;;;;;;12.95;5.45;;;16.70;99.90;;;;;;5013418;28;20037;-64
2022/10/24 08:04:32;;;;;;;15.45;8.13;;;16.70;99.90;;;;;;4999982;28;20105;-63
2022/10/24 08:07:18;;;;;;;14.18;8.80;;;16.80;99.90;;;;;;5001328;28;20042;-63
2022/10/24 08:10:05;;;;;;;10.05;4.93;;;16.80;99.90;;;;;;5013650;28;20022;-64
2022/10/24 08:12:50;;;;;;;10.95;4.70;;;16.80;99.90;;;;;;4998290;28;20120;-64
2022/10/24 08:15:36;;;;;;;12.18;4.95;;;16.80;99.90;;;;;;5004142;28;20032;-65
2022/10/24 08:18:22;;;;;;;18.63;6.57;;;16.80;99.90;;;;;;5000832;28;20041;-64
2022/10/24 08:21:11;;;;;;;8.60;4.22;;;16.80;99.90;;;;;;5011239;28;20030;-64
2022/10/24 08:23:57;;;;;;;11.50;4.40;;;16.90;99.90;;;;;;5013476;28;20042;-64
2022/10/24 08:26:43;;;;;;;12.20;4.75;;;17.00;99.90;;;;;;4999015;28;20034;-63
2022/10/24 08:29:29;;;;;;;9.13;4.03;;;17.10;99.90;;;;;;5012740;28;20038;-64
2022/10/24 08:32:15;;;;;;;10.98;4.40;;;17.10;99.90;;;;;;5012983;28;20034;-65
2022/10/24 08:35:01;;;;;;;8.68;4.10;;;17.10;99.90;;;;;;4999791;28;20557;-63
2022/10/24 08:37:46;;;;;;;8.43;4.30;;;17.10;99.90;;;;;;4998637;28;20172;-65
2022/10/24 08:40:32;;;;;;;10.70;5.20;;;17.10;99.90;;;;;;5014025;28;20060;-65
2022/10/24 08:43:22;;;;;;;9.40;3.90;;;17.10;99.90;;;;;;4981194;28;20031;-65
2022/10/24 08:46:30;;;;;;;11.48;5.03;;;17.20;99.90;;;;;;5013544;28;20288;-64
2022/10/24 08:49:40;;;;;;;9.98;4.40;;;17.10;99.90;;;;;;5033365;28;20049;-64
2022/10/24 08:52:44;;;;;;;10.15;4.82;;;17.20;99.90;;;;;;5018428;28;20563;-63
2022/10/24 08:55:42;;;;;;;16.73;6.90;;;17.20;99.90;;;;;;5015641;28;20059;-63
2022/10/24 08:58:40;;;;;;;8.68;4.10;;;17.30;99.90;;;;;;5015644;28;20025;-62
2022/10/24 09:01:34;;;;;;;8.13;3.97;;;17.30;99.90;;;;;;5013989;28;20142;-64
2022/10/24 09:04:23;;;;;;;7.70;3.90;;;17.40;99.90;;;;;;5013173;28;20121;-63
2022/10/24 09:07:27;;;;;;;11.60;4.32;;;17.40;99.90;;;;;;4986673;28;20034;-63
2022/10/24 09:10:19;;;;;;;8.27;3.60;;;17.40;99.90;;;;;;4998171;28;20026;-64
2022/10/24 09:13:16;;;;;;;10.32;4.05;;;17.50;99.90;;;;;;4997505;28;20108;-63
2022/10/24 09:16:02;;;;;;;7.95;4.28;;;17.50;99.90;;;;;;4993650;28;20042;-64
2022/10/24 09:18:52;;;;;;;11.20;4.07;;;17.60;99.90;;;;;;4997843;28;20018;-64
2022/10/24 09:21:41;;;;;;;8.35;3.85;;;17.60;99.90;;;;;;5011190;28;20033;-64
2022/10/24 09:24:53;;;;;;;9.75;4.05;;;17.60;99.90;;;;;;5009658;28;20037;-65
2022/10/24 09:27:40;;;;;;;9.15;4.13;;;17.60;99.90;;;;;;4994583;28;20923;-64
2022/10/24 09:30:28;;;;;;;12.65;4.78;;;17.60;99.90;;;;;;5006697;28;20601;-63
2022/10/24 09:33:17;;;;;;;7.05;4.15;;;17.70;99.90;;;;;;5011010;28;20045;-64
2022/10/24 09:36:04;;;;;;;9.38;3.83;;;17.70;99.90;;;;;;5000526;28;20037;-64
2022/10/24 09:38:50;;;;;;;8.07;3.70;;;17.70;99.90;;;;;;5009476;28;20101;-64
2022/10/24 09:41:36;;;;;;;10.30;4.15;;;17.70;99.90;;;;;;5011831;28;20014;-63
2022/10/24 09:44:45;;;;;;;15.93;5.13;;;17.80;99.90;;;;;;4997079;28;20076;-64
2022/10/24 09:47:38;;;;;;;7.90;3.78;;;17.80;99.90;;;;;;5009959;28;20029;-64
2022/10/24 09:50:25;;;;;;;9.88;4.18;;;17.80;99.90;;;;;;5010713;28;20096;-64
2022/10/24 09:53:27;;;;;;;9.43;4.13;;;17.80;99.90;;;;;;5011541;28;20038;-63
2022/10/24 09:56:14;;;;;;;9.48;4.55;;;17.90;99.90;;;;;;5011435;28;20459;-63
2022/10/24 09:59:27;;;;;;;10.65;4.70;;;17.90;99.90;;;;;;4996391;28;20051;-64
2022/10/24 10:02:20;;;;;;;12.23;4.20;;;18.00;99.90;;;;;;4997239;28;20033;-65
2022/10/24 10:05:06;;;;;;;11.85;4.47;;;18.00;99.90;;;;;;4996980;28;20483;-64
2022/10/24 10:07:52;;;;;;;7.80;3.72;;;18.00;99.90;;;;;;5011323;28;20022;-64
2022/10/24 10:10:39;;;;;;;8.38;4.18;;;18.00;99.90;;;;;;5011139;28;20040;-63
2022/10/24 10:13:27;;;;;;;9.20;4.75;;;18.10;99.90;;;;;;5012898;28;20104;-64
2022/10/24 10:16:27;;;;;;;7.82;4.45;;;18.10;99.90;;;;;;5012405;28;20041;-64
2022/10/24 10:19:17;;;;;;;11.98;4.30;;;18.10;99.90;;;;;;5014935;28;20068;-64
2022/10/24 10:22:19;;;;;;;11.18;5.25;;;18.20;99.90;;;;;;4997587;28;20376;-64
2022/10/24 10:25:25;;;;;;;11.10;4.72;;;18.20;99.90;;;;;;5011092;28;20022;-63
2022/10/24 10:28:22;;;;;;;9.52;4.05;;;18.30;99.90;;;;;;5010723;28;20026;-64
2022/10/24 10:31:10;;;;;;;11.13;5.15;;;18.30;99.90;;;;;;5006572;28;20089;-65
2022/10/24 10:34:21;;;;;;;8.57;4.03;;;18.20;99.90;;;;;;5011779;28;20029;-64
2022/10/24 10:37:30;;;;;;;24.75;6.47;;;18.30;99.90;;;;;;5011232;28;21933;-64
2022/10/24 10:40:28;;;;;;;10.02;4.72;;;18.30;99.90;;;;;;5012505;28;20530;-64
2022/10/24 10:43:25;;;;;;;12.32;4.80;;;18.30;99.90;;;;;;4991885;28;20026;-64
2022/10/24 10:46:30;;;;;;;12.27;4.60;;;18.30;99.90;;;;;;4994668;28;20033;-64
2022/10/24 10:49:40;;;;;;;13.02;4.63;;;18.30;99.90;;;;;;4992199;28;20115;-64
2022/10/24 10:52:38;;;;;;;12.05;4.82;;;18.30;99.90;;;;;;5006076;28;20068;-64
2022/10/24 10:56:09;;;;;;;10.85;5.32;;;18.30;99.90;;;;;;5016642;28;20092;-63
2022/10/24 10:59:33;;;;;;;14.48;5.18;;;18.40;99.90;;;;;;4992830;28;20040;-62
2022/10/24 11:02:38;;;;;;;12.27;4.88;;;18.40;99.90;;;;;;4918864;29;20028;-63
2022/10/24 11:05:51;;;;;;;8.93;4.00;;;18.40;99.90;;;;;;4912294;29;20024;-64
2022/10/24 11:09:00;;;;;;;11.82;4.90;;;18.40;99.90;;;;;;4991549;28;20406;-64
2022/10/24 11:11:50;;;;;;;12.75;5.30;;;18.50;99.90;;;;;;4995896;28;20080;-64
2022/10/24 11:14:49;;;;;;;11.63;4.65;;;18.50;99.90;;;;;;5011518;28;20037;-64
2022/10/24 11:17:55;;;;;;;11.25;4.20;;;18.60;99.90;;;;;;5014697;28;20022;-64
2022/10/24 11:20:46;;;;;;;10.68;4.80;;;18.50;99.90;;;;;;5015140;28;20457;-64
2022/10/24 11:23:54;;;;;;;9.25;4.55;;;18.70;99.90;;;;;;5013480;28;20018;-64
2022/10/24 11:26:46;;;;;;;15.45;4.78;;;18.70;99.90;;;;;;5015219;28;20526;-65
2022/10/24 11:29:52;;;;;;;13.20;5.05;;;18.60;99.90;;;;;;5014997;28;20037;-65
2022/10/24 11:32:53;;;;;;;15.15;5.35;;;18.70;99.90;;;;;;5000049;28;20037;-64
2022/10/24 11:35:52;;;;;;;9.18;4.55;;;18.80;99.90;;;;;;5016121;28;20080;-65
2022/10/24 11:38:45;;;;;;;11.55;4.38;;;18.80;99.90;;;;;;5015017;28;20026;-64
2022/10/24 11:41:46;;;;;;;11.43;4.13;;;18.90;99.90;;;;;;5010849;28;20033;-64
2022/10/24 11:44:46;;;;;;;10.05;4.75;;;19.00;99.90;;;;;;5016147;28;20052;-63
2022/10/24 11:47:46;;;;;;;10.05;4.47;;;19.00;99.90;;;;;;5016786;28;20041;-63
2022/10/24 11:50:52;;;;;;;17.98;4.70;;;19.10;99.90;;;;;;5014431;28;20125;-63
2022/10/24 11:54:01;;;;;;;11.65;4.45;;;19.20;99.90;;;;;;5018647;28;20053;-63
2022/10/24 11:57:12;;;;;;;12.05;4.35;;;19.30;99.90;;;;;;5005861;28;20030;-64
2022/10/24 11:59:58;;;;;;;11.27;4.07;;;19.50;99.90;;;;;;5029909;28;20414;-63
2022/10/24 12:03:19;;;;;;;12.55;4.00;;;19.50;99.90;;;;;;5009947;28;20057;-64
2022/10/24 12:06:35;;;;;;;9.38;3.95;;;19.60;99.90;;;;;;5014020;28;20597;-64
2022/10/24 12:09:39;;;;;;;13.40;5.10;;;19.70;99.90;;;;;;5014528;28;20491;-65
2022/10/24 12:12:46;;;;;;;11.05;4.55;;;19.70;99.90;;;;;;5015729;28;20033;-64
2022/10/24 12:15:44;;;;;;;23.73;5.90;;;19.70;99.90;;;;;;5003592;28;20034;-64
2022/10/24 12:18:59;;;;;;;9.48;4.30;;;19.70;99.90;;;;;;5013433;28;20034;-63
2022/10/24 12:21:57;;;;;;;13.75;5.38;;;19.90;99.90;;;;;;4999488;28;20521;-64
2022/10/24 12:24:43;;;;;;;13.32;4.82;;;19.80;99.90;;;;;;5013895;28;20033;-64
2022/10/24 12:27:34;;;;;;;12.75;4.88;;;19.80;99.90;;;;;;4999067;28;20038;-63
2022/10/24 12:30:23;;;;;;;11.77;4.57;;;19.70;99.90;;;;;;4998817;28;20042;-64
2022/10/24 12:33:26;;;;;;;10.80;4.78;;;19.80;99.90;;;;;;5013935;28;20037;-63
2022/10/24 12:36:32;;;;;;;11.40;4.53;;;19.70;99.90;;;;;;4998024;28;20033;-64
2022/10/24 12:39:33;;;;;;;12.35;4.47;;;19.60;99.90;;;;;;5013436;28;20030;-63
2022/10/24 12:42:22;;;;;;;13.05;4.80;;;19.60;99.90;;;;;;5013211;28;20490;-64
2022/10/24 12:45:29;;;;;;;12.32;4.30;;;19.50;99.90;;;;;;4994477;28;20398;-64
2022/10/24 12:48:36;;;;;;;12.48;4.13;;;19.40;99.90;;;;;;4983505;28;20406;-64
2022/10/24 12:51:35;;;;;;;11.82;3.80;;;19.40;99.90;;;;;;5013040;28;20037;-64
2022/10/24 12:54:43;;;;;;;9.70;4.40;;;19.40;99.90;;;;;;4999460;28;20117;-63
2022/10/24 12:57:38;;;;;;;11.90;3.97;;;19.50;99.90;;;;;;5012408;28;20037;-66
2022/10/24 13:00:28;;;;;;;8.75;4.15;;;19.40;99.90;;;;;;4998157;28;20034;-63
2022/10/24 13:03:47;;;;;;;10.07;4.18;;;19.40;99.90;;;;;;4998342;28;20040;-66
2022/10/24 13:06:50;;;;;;;9.77;4.30;;;19.40;99.90;;;;;;5012435;28;20038;-65
2022/10/24 13:10:00;;;;;;;11.88;4.30;;;19.40;99.90;;;;;;5015049;28;20037;-64
2022/10/24 13:13:17;;;;;;;11.80;4.43;;;19.30;99.90;;;;;;5013215;28;20037;-66
2022/10/24 13:16:19;;;;;;;13.57;5.05;;;19.30;99.90;;;;;;5010714;28;20041;-63
2022/10/24 13:19:16;;;;;;;15.98;3.88;;;19.30;99.90;;;;;;4994151;28;20019;-65
2022/10/24 13:22:02;;;;;;;7.93;3.60;;;19.30;99.90;;;;;;5009844;28;20033;-64
2022/10/24 13:24:48;;;;;;;10.80;3.42;;;19.30;99.90;;;;;;5010835;28;20073;-63
2022/10/24 13:27:34;;;;;;;7.18;3.58;;;19.30;99.90;;;;;;5011542;28;20133;-63
2022/10/24 13:30:25;;;;;;;11.00;3.45;;;19.50;99.90;;;;;;4996930;28;20045;-63
2022/10/24 13:33:30;;;;;;;6.70;3.90;;;19.70;99.70;;;;;;5011772;28;20030;-65
2022/10/24 13:36:25;;;;;;;12.43;3.35;;;19.80;99.50;;;;;;5012314;28;20092;-65
2022/10/24 13:39:16;;;;;;;6.05;3.33;;;19.90;99.40;;;;;;5010568;28;20521;-64
2022/10/24 13:42:07;;;;;;;7.22;3.70;;;19.90;99.40;;;;;;5017339;28;20033;-64
2022/10/24 13:45:19;;;;;;;8.27;3.38;;;19.80;99.40;;;;;;5018038;28;20394;-64
2022/10/24 13:48:09;;;;;;;11.27;4.03;;;19.80;99.50;;;;;;5011265;28;20038;-65
2022/10/24 13:51:04;;;;;;;9.07;3.33;;;19.60;99.60;;;;;;4990691;28;20070;-64
2022/10/24 13:53:55;;;;;;;8.40;3.67;;;19.50;99.90;;;;;;4991560;28;20085;-65
2022/10/24 13:56:43;;;;;;;10.48;3.70;;;19.30;99.90;;;;;;4979258;28;20034;-65
2022/10/24 13:59:29;;;;;;;13.60;4.05;;;19.30;99.90;;;;;;4997419;28;20030;-65
2022/10/24 14:02:20;;;;;;;10.75;4.28;;;19.20;99.90;;;;;;5014307;28;20596;-64
2022/10/24 14:05:16;;;;;;;8.57;3.60;;;19.30;99.90;;;;;;5016063;28;20026;-66
2022/10/24 14:08:04;;;;;;;7.90;3.78;;;19.40;99.90;;;;;;5010928;28;20030;-66
2022/10/24 14:10:51;;;;;;;10.18;3.47;;;19.50;99.80;;;;;;4996126;28;20021;-65
2022/10/24 14:13:49;;;;;;;5.85;3.67;;;19.60;99.70;;;;;;5011028;28;20101;-65
2022/10/24 14:16:35;;;;;;;5.78;3.55;;;19.90;99.20;;;;;;4995393;28;20068;-64
2022/10/24 14:19:24;;;;;;;10.27;4.03;;;19.80;99.40;;;;;;4985180;28;20065;-68
2022/10/24 14:22:18;;;;;;;6.22;3.50;;;19.80;99.40;;;;;;5010952;28;20029;-66
2022/10/24 14:25:19;;;;;;;4.93;3.53;;;19.70;99.50;;;;;;4998052;28;20394;-66
2022/10/24 14:28:15;;;;;;;7.95;3.20;;;19.80;99.60;;;;;;4999836;28;20398;-66
2022/10/24 14:31:05;;;;;;;7.57;3.85;;;19.90;99.40;;;;;;4998450;28;20045;-65
2022/10/24 14:33:55;;;;;;;7.72;3.42;;;19.70;99.60;;;;;;4993111;28;20116;-64
2022/10/24 14:36:40;;;;;;;8.73;3.65;;;19.60;99.80;;;;;;5002483;28;20144;-64
2022/10/24 14:39:27;;;;;;;6.70;3.67;;;19.50;99.80;;;;;;4982961;28;20120;-65
2022/10/24 14:42:17;;;;;;;7.45;3.47;;;19.40;99.90;;;;;;5010153;28;20030;-65
2022/10/24 14:45:03;;;;;;;8.05;3.47;;;19.30;99.90;;;;;;4996391;28;20409;-67
2022/10/24 14:47:51;;;;;;;10.25;4.25;;;19.20;99.90;;;;;;5010257;28;20085;-65